Time;durP1;ratioP1;P1;durP2;ratioP2;P2;SDS_P1;SDS_P2;PMS_P1;PMS_P2;Temp;Humidity;BMP_temperature;BMP_pressure;BME280_temperature;BME280_humidity;BME280_pressure;Samples;Min_cycle;Max_cycle;Signal;HPM_P1;HPM_P2
2022/05/27 00:00:20;;;;;;;25.35;5.43;;;15.90;99.90;;;;;;5065753;28;25143;-61
2022/05/27 00:02:50;;;;;;;27.85;5.68;;;16.00;99.90;;;;;;5062245;28;25100;-61
2022/05/27 00:05:16;;;;;;;27.45;6.10;;;16.00;99.90;;;;;;5056638;28;25060;-62
2022/05/27 00:07:42;;;;;;;24.80;6.05;;;16.00;99.90;;;;;;5056614;28;25058;-62
2022/05/27 00:10:10;;;;;;;25.67;5.32;;;16.00;99.90;;;;;;5056474;28;25172;-62
2022/05/27 00:12:36;;;;;;;28.35;6.25;;;15.90;99.90;;;;;;5055870;28;25147;-61
2022/05/27 00:15:01;;;;;;;34.63;7.32;;;16.00;99.90;;;;;;5055140;28;25120;-63
2022/05/27 00:17:27;;;;;;;22.40;6.72;;;16.00;99.90;;;;;;5057336;28;25078;-62
2022/05/27 00:19:53;;;;;;;23.58;6.22;;;15.90;99.90;;;;;;5057918;28;25087;-61
2022/05/27 00:22:19;;;;;;;30.77;7.38;;;15.90;99.90;;;;;;5056634;28;25077;-62
2022/05/27 00:24:45;;;;;;;37.70;6.78;;;15.80;99.90;;;;;;5055100;28;25078;-62
2022/05/27 00:27:10;;;;;;;38.38;7.38;;;15.70;99.90;;;;;;5053877;28;25047;-62
2022/05/27 00:29:36;;;;;;;35.30;8.75;;;15.70;99.90;;;;;;5056535;28;25097;-61
2022/05/27 00:32:03;;;;;;;42.88;8.20;;;15.60;99.90;;;;;;5054137;28;25115;-62
2022/05/27 00:34:29;;;;;;;36.42;7.60;;;15.60;99.90;;;;;;5055454;28;25064;-62
2022/05/27 00:36:54;;;;;;;30.02;6.47;;;15.60;99.90;;;;;;5055964;28;25067;-61
2022/05/27 00:39:20;;;;;;;41.42;7.75;;;15.50;99.90;;;;;;5057955;28;25079;-62
2022/05/27 00:41:45;;;;;;;29.92;6.75;;;15.50;99.90;;;;;;5053694;28;25144;-61
2022/05/27 00:44:11;;;;;;;47.75;8.73;;;15.50;99.90;;;;;;5049849;28;25070;-62
2022/05/27 00:46:41;;;;;;;33.63;7.28;;;15.50;99.90;;;;;;5050254;28;25066;-62
2022/05/27 00:49:14;;;;;;;36.75;7.13;;;15.50;99.90;;;;;;5052231;28;25084;-62
2022/05/27 00:51:49;;;;;;;36.22;7.80;;;15.50;99.90;;;;;;5051254;28;25051;-63
2022/05/27 00:54:19;;;;;;;39.22;7.68;;;15.50;99.90;;;;;;5053952;28;25090;-63
2022/05/27 00:56:50;;;;;;;44.42;8.52;;;15.50;99.90;;;;;;5055946;28;25153;-63
2022/05/27 00:59:32;;;;;;;27.63;6.82;;;15.60;99.90;;;;;;5057988;28;25134;-62
2022/05/27 01:01:59;;;;;;;35.38;7.50;;;15.60;99.90;;;;;;5054286;28;25097;-63
2022/05/27 01:04:27;;;;;;;32.03;7.07;;;15.50;99.90;;;;;;5052961;28;25107;-62
2022/05/27 01:06:53;;;;;;;36.45;8.55;;;15.60;99.90;;;;;;5051686;28;25136;-62
2022/05/27 01:09:18;;;;;;;36.53;8.13;;;15.50;99.90;;;;;;5055918;28;25086;-62
2022/05/27 01:11:53;;;;;;;29.95;7.35;;;15.50;99.90;;;;;;5053741;28;25135;-62
2022/05/27 01:14:43;;;;;;;32.03;8.07;;;15.60;99.90;;;;;;5053810;28;25147;-62
2022/05/27 01:17:40;;;;;;;27.83;6.32;;;15.60;99.90;;;;;;5056524;28;25159;-62
2022/05/27 01:20:24;;;;;;;38.47;8.20;;;15.50;99.90;;;;;;5053870;28;25055;-62
2022/05/27 01:23:03;;;;;;;34.20;7.28;;;15.50;99.90;;;;;;5055048;28;25070;-62
2022/05/27 01:25:50;;;;;;;33.78;6.22;;;15.50;99.90;;;;;;5053801;28;25054;-63
2022/05/27 01:28:34;;;;;;;32.58;8.20;;;15.50;99.90;;;;;;5056374;28;25067;-62
2022/05/27 01:31:21;;;;;;;25.90;6.70;;;15.60;99.90;;;;;;5054435;28;25126;-63
2022/05/27 01:34:07;;;;;;;32.05;6.68;;;15.50;99.90;;;;;;5051342;28;25062;-62
2022/05/27 01:37:00;;;;;;;36.15;7.80;;;15.40;99.90;;;;;;5054583;28;25062;-62
2022/05/27 01:39:44;;;;;;;28.65;6.50;;;15.50;99.90;;;;;;5048272;28;25065;-63
2022/05/27 01:42:15;;;;;;;32.35;6.22;;;15.40;99.90;;;;;;5054525;28;25064;-61
2022/05/27 01:44:46;;;;;;;26.20;6.00;;;15.40;99.90;;;;;;5055090;28;25100;-61
2022/05/27 01:47:36;;;;;;;25.23;5.82;;;15.50;99.90;;;;;;5055906;28;25147;-61
2022/05/27 01:50:17;;;;;;;24.42;6.10;;;15.40;99.90;;;;;;5042415;28;25063;-63
2022/05/27 01:53:08;;;;;;;25.25;6.07;;;15.40;99.90;;;;;;5055496;28;25084;-63
2022/05/27 01:55:55;;;;;;;31.63;7.13;;;15.40;99.90;;;;;;5047623;28;25082;-62
2022/05/27 01:58:44;;;;;;;24.58;6.10;;;15.40;99.90;;;;;;5053475;28;25101;-62
2022/05/27 02:01:17;;;;;;;29.35;6.95;;;15.30;99.90;;;;;;5050265;28;25078;-62
2022/05/27 02:03:49;;;;;;;32.38;6.75;;;16.40;99.90;;;;;;5055925;28;25120;-62
2022/05/27 02:06:30;;;;;;;36.72;6.85;;;16.10;99.90;;;;;;5053330;28;25059;-62
2022/05/27 02:09:12;;;;;;;23.42;6.78;;;15.90;99.90;;;;;;5049837;28;25068;-61
2022/05/27 02:11:41;;;;;;;36.22;7.47;;;15.90;99.90;;;;;;5054518;28;25100;-63
2022/05/27 02:14:22;;;;;;;24.85;6.70;;;15.50;99.90;;;;;;5052898;28;25114;-64
2022/05/27 02:16:52;;;;;;;21.52;5.88;;;15.20;99.90;;;;;;5052159;28;25068;-63
2022/05/27 02:19:43;;;;;;;19.08;6.95;;;15.10;99.90;;;;;;5055925;28;25068;-63
2022/05/27 02:22:26;;;;;;;18.70;6.75;;;15.50;99.90;;;;;;5055591;28;25067;-63
2022/05/27 02:25:03;;;;;;;24.52;6.97;;;14.80;99.90;;;;;;5055863;28;25059;-63
2022/05/27 02:27:37;;;;;;;32.80;7.57;;;14.90;99.90;;;;;;5054076;28;25066;-62
2022/05/27 02:30:07;;;;;;;21.02;7.82;;;14.80;99.90;;;;;;5054280;28;25085;-61
2022/05/27 02:32:42;;;;;;;22.10;7.55;;;15.30;99.90;;;;;;5052467;28;25076;-62
2022/05/27 02:35:25;;;;;;;32.22;8.27;;;14.80;99.90;;;;;;5053418;28;25054;-62
2022/05/27 02:37:53;;;;;;;34.78;8.43;;;15.20;99.90;;;;;;5055200;28;25101;-62
2022/05/27 02:40:32;;;;;;;20.65;7.57;;;15.30;99.90;;;;;;5057465;28;25066;-63
2022/05/27 02:43:23;;;;;;;29.67;7.97;;;14.80;99.90;;;;;;5056280;28;25072;-64
2022/05/27 02:46:19;;;;;;;18.70;6.28;;;14.90;99.90;;;;;;5054822;28;25096;-63
2022/05/27 02:49:02;;;;;;;27.80;7.10;;;15.30;99.90;;;;;;5055257;28;25050;-63
2022/05/27 02:51:37;;;;;;;23.33;7.63;;;15.30;99.90;;;;;;5066471;28;25053;-62
2022/05/27 02:54:20;;;;;;;29.30;7.63;;;15.20;99.90;;;;;;5060760;28;25093;-63
2022/05/27 02:56:52;;;;;;;31.40;8.50;;;15.30;99.90;;;;;;5056988;28;25059;-64
2022/05/27 02:59:19;;;;;;;30.23;7.43;;;15.40;99.90;;;;;;5054104;28;25067;-64
2022/05/27 03:01:46;;;;;;;24.65;7.05;;;15.00;99.90;;;;;;5053469;28;25059;-63
2022/05/27 03:04:13;;;;;;;20.85;7.05;;;15.30;99.90;;;;;;5052265;28;25076;-64
2022/05/27 03:07:03;;;;;;;22.08;7.25;;;15.30;99.90;;;;;;5054149;28;25072;-64
2022/05/27 03:09:49;;;;;;;21.73;7.80;;;14.80;99.90;;;;;;5057759;28;25075;-65
2022/05/27 03:12:25;;;;;;;32.58;7.38;;;15.00;99.90;;;;;;5054358;28;25066;-63
2022/05/27 03:15:10;;;;;;;28.98;6.68;;;15.10;99.90;;;;;;5052751;28;25056;-63
2022/05/27 03:17:42;;;;;;;20.00;5.40;;;14.70;99.90;;;;;;5054808;28;25079;-62
2022/05/27 03:20:16;;;;;;;18.65;6.47;;;14.70;99.90;;;;;;5054538;28;25112;-62
2022/05/27 03:23:02;;;;;;;18.35;6.82;;;14.80;99.90;;;;;;5054842;28;25142;-61
2022/05/27 03:25:48;;;;;;;20.13;6.03;;;15.10;99.90;;;;;;5055442;28;25082;-62
2022/05/27 03:28:18;;;;;;;18.20;6.05;;;14.90;99.90;;;;;;5052891;28;25096;-61
2022/05/27 03:31:05;;;;;;;17.67;5.40;;;15.00;99.90;;;;;;5051923;28;25069;-64
2022/05/27 03:33:37;;;;;;;20.15;5.60;;;14.70;99.90;;;;;;5051622;28;25057;-63
2022/05/27 03:36:15;;;;;;;;;;;14.60;99.90;;;;;;5052443;28;25477;-62
2022/05/27 03:39:02;;;;;;;20.00;5.70;;;14.50;99.90;;;;;;5057753;28;24070;-61
2022/05/27 03:41:42;;;;;;;14.90;5.55;;;14.90;99.90;;;;;;5056493;28;25104;-62
2022/05/27 03:44:13;;;;;;;22.00;5.57;;;14.60;99.90;;;;;;5057575;28;25075;-60
2022/05/27 03:46:38;;;;;;;16.27;4.97;;;14.90;99.90;;;;;;5056286;28;25127;-61
2022/05/27 03:49:05;;;;;;;18.35;5.13;;;14.50;99.90;;;;;;5056181;28;25071;-60
2022/05/27 03:51:36;;;;;;;29.75;6.15;;;14.40;99.90;;;;;;5054240;28;25156;-60
2022/05/27 03:54:05;;;;;;;12.15;5.25;;;14.60;99.90;;;;;;5056782;28;25055;-59
2022/05/27 03:56:33;;;;;;;13.30;5.78;;;14.40;99.90;;;;;;5056669;28;25069;-61
2022/05/27 03:58:59;;;;;;;15.10;6.32;;;14.40;99.90;;;;;;5057457;28;25072;-60
2022/05/27 04:01:26;;;;;;;14.52;5.93;;;14.40;99.90;;;;;;5057289;28;25060;-60
2022/05/27 04:03:53;;;;;;;23.23;5.80;;;14.60;99.90;;;;;;5054412;28;25083;-60
2022/05/27 04:06:19;;;;;;;16.48;6.00;;;14.70;99.90;;;;;;5055163;28;25085;-59
2022/05/27 04:08:44;;;;;;;12.13;5.35;;;14.40;99.90;;;;;;5055605;28;25148;-62
2022/05/27 04:11:10;;;;;;;16.50;4.97;;;14.50;99.90;;;;;;5056314;28;25062;-60
2022/05/27 04:13:36;;;;;;;17.67;5.63;;;14.30;99.90;;;;;;5055661;28;25135;-59
2022/05/27 04:16:02;;;;;;;17.05;5.47;;;14.60;99.90;;;;;;5056117;28;25209;-61
2022/05/27 04:18:27;;;;;;;15.65;4.57;;;14.60;99.90;;;;;;5057706;28;25058;-59
2022/05/27 04:20:53;;;;;;;14.75;3.92;;;14.60;99.90;;;;;;5058192;28;25126;-59
2022/05/27 04:23:18;;;;;;;13.65;4.43;;;14.60;99.90;;;;;;5059998;28;25051;-59
2022/05/27 04:25:49;;;;;;;7.10;3.28;;;14.30;99.90;;;;;;5057609;28;25107;-62
2022/05/27 04:28:14;;;;;;;11.02;3.58;;;14.50;99.90;;;;;;5054159;28;25085;-60
2022/05/27 04:30:41;;;;;;;11.18;4.15;;;14.40;99.90;;;;;;5055892;28;25095;-61
2022/05/27 04:33:08;;;;;;;13.15;3.47;;;14.50;99.90;;;;;;5055075;28;25153;-60
2022/05/27 04:35:33;;;;;;;14.63;2.70;;;14.50;99.90;;;;;;5056158;28;25068;-60
2022/05/27 04:37:59;;;;;;;8.82;3.45;;;14.50;99.90;;;;;;5056064;28;25062;-60
2022/05/27 04:40:24;;;;;;;8.88;2.50;;;14.40;99.90;;;;;;5056039;28;25087;-61
2022/05/27 04:42:50;;;;;;;17.33;3.70;;;14.40;99.90;;;;;;5055859;28;25103;-60
2022/05/27 04:45:15;;;;;;;9.95;3.17;;;14.50;99.90;;;;;;5056237;28;25075;-60
2022/05/27 04:47:41;;;;;;;10.57;2.60;;;14.50;99.90;;;;;;5051939;28;25156;-60
2022/05/27 04:50:10;;;;;;;14.80;3.28;;;14.50;99.90;;;;;;5053119;28;25069;-59
2022/05/27 04:52:36;;;;;;;11.35;2.90;;;14.50;99.90;;;;;;5055650;28;25158;-60
2022/05/27 04:55:06;;;;;;;12.52;3.08;;;14.50;99.90;;;;;;5054591;28;25506;-60
2022/05/27 04:57:35;;;;;;;12.40;2.75;;;14.50;99.90;;;;;;5053470;28;25118;-60
2022/05/27 05:00:05;;;;;;;4.55;1.85;;;14.40;99.90;;;;;;5056323;28;25056;-60
2022/05/27 05:02:31;;;;;;;8.32;3.28;;;14.50;99.90;;;;;;5052062;28;25233;-60
2022/05/27 05:04:56;;;;;;;9.23;3.13;;;14.60;99.90;;;;;;5054696;28;25065;-60
2022/05/27 05:07:24;;;;;;;11.10;3.22;;;14.50;99.90;;;;;;5053896;28;25135;-59
2022/05/27 05:09:50;;;;;;;7.88;2.35;;;14.60;99.90;;;;;;5055510;28;25079;-60
2022/05/27 05:12:21;;;;;;;10.70;2.85;;;14.60;99.90;;;;;;5055724;28;25139;-58
2022/05/27 05:14:47;;;;;;;15.93;3.25;;;14.60;99.90;;;;;;5053454;28;25068;-59
2022/05/27 05:17:12;;;;;;;10.00;2.47;;;14.60;99.90;;;;;;5054925;28;25059;-60
2022/05/27 05:19:38;;;;;;;8.30;2.72;;;14.60;99.90;;;;;;5055876;28;25079;-59
2022/05/27 05:22:04;;;;;;;7.32;2.38;;;14.60;99.90;;;;;;5055556;28;25064;-59
2022/05/27 05:24:30;;;;;;;7.82;3.13;;;14.70;99.90;;;;;;5054207;28;25062;-59
2022/05/27 05:26:55;;;;;;;9.43;2.50;;;14.70;99.90;;;;;;5056710;28;25106;-63
2022/05/27 05:29:21;;;;;;;10.63;2.78;;;14.80;99.90;;;;;;5052984;28;25079;-63
2022/05/27 05:31:46;;;;;;;10.82;2.92;;;14.80;99.90;;;;;;5054248;28;25163;-61
2022/05/27 05:34:12;;;;;;;13.95;3.65;;;14.80;99.90;;;;;;5051883;28;25131;-63
2022/05/27 05:36:38;;;;;;;11.00;2.92;;;14.90;99.90;;;;;;5051991;28;25147;-62
2022/05/27 05:39:04;;;;;;;9.10;2.03;;;14.90;99.90;;;;;;5048487;28;25105;-62
2022/05/27 05:41:36;;;;;;;14.20;2.58;;;15.00;99.90;;;;;;5048568;28;25069;-61
2022/05/27 05:44:04;;;;;;;13.02;2.83;;;14.90;99.90;;;;;;5050065;28;25095;-62
2022/05/27 05:46:32;;;;;;;8.45;2.38;;;15.00;99.90;;;;;;5056564;28;25116;-63
2022/05/27 05:48:58;;;;;;;9.98;2.80;;;15.10;99.90;;;;;;5055678;28;25053;-62
2022/05/27 05:51:24;;;;;;;10.23;2.90;;;15.20;99.90;;;;;;5060755;28;25095;-62
2022/05/27 05:53:49;;;;;;;7.55;2.25;;;15.10;99.90;;;;;;5052999;28;25064;-62
2022/05/27 05:56:15;;;;;;;8.63;3.10;;;15.20;99.90;;;;;;5052406;28;25149;-62
2022/05/27 05:58:41;;;;;;;7.65;3.03;;;15.20;99.90;;;;;;5054055;28;25134;-62
2022/05/27 06:01:06;;;;;;;8.38;2.63;;;15.30;99.90;;;;;;5051707;28;25084;-61
2022/05/27 06:03:32;;;;;;;10.52;2.95;;;15.20;99.90;;;;;;5053841;28;25069;-61
2022/05/27 06:05:57;;;;;;;11.38;2.10;;;15.20;99.90;;;;;;5058807;28;25064;-60
2022/05/27 06:08:23;;;;;;;11.82;2.67;;;15.20;99.90;;;;;;5055859;28;25087;-60
2022/05/27 06:10:49;;;;;;;8.45;2.80;;;15.40;99.90;;;;;;5054941;28;25094;-61
2022/05/27 06:13:15;;;;;;;12.05;2.88;;;15.40;99.90;;;;;;5053432;28;25084;-61
2022/05/27 06:15:41;;;;;;;14.13;2.90;;;15.70;99.90;;;;;;5050282;28;25111;-60
2022/05/27 06:18:08;;;;;;;11.25;2.70;;;15.50;99.90;;;;;;5050733;28;25124;-62
2022/05/27 06:20:35;;;;;;;11.40;2.67;;;15.40;99.90;;;;;;5054179;28;25074;-61
2022/05/27 06:23:05;;;;;;;10.93;2.90;;;15.40;99.90;;;;;;5053908;28;25141;-61
2022/05/27 06:25:31;;;;;;;8.82;2.33;;;15.30;99.90;;;;;;5052499;28;25098;-63
2022/05/27 06:36:15;;;;;;;12.70;3.05;;;14.90;99.90;;;;;;5055966;28;25111;-63
2022/05/27 06:38:41;;;;;;;12.40;3.03;;;14.90;99.90;;;;;;5054803;28;25139;-61
2022/05/27 06:41:06;;;;;;;18.17;3.15;;;14.90;99.90;;;;;;5055299;28;25076;-60
2022/05/27 06:43:32;;;;;;;11.75;3.50;;;14.90;99.90;;;;;;5055878;28;25105;-61
2022/05/27 06:46:00;;;;;;;15.23;4.30;;;14.90;99.90;;;;;;5059794;28;25050;-62
2022/05/27 06:48:28;;;;;;;9.15;3.05;;;15.00;99.90;;;;;;5059512;28;25129;-60
2022/05/27 06:50:54;;;;;;;8.65;2.70;;;15.10;99.90;;;;;;5057429;28;25170;-62
2022/05/27 06:53:19;;;;;;;13.25;4.15;;;15.20;99.90;;;;;;5058403;28;25087;-61
2022/05/27 06:55:52;;;;;;;10.02;3.85;;;15.30;99.90;;;;;;5058401;28;25142;-63
2022/05/27 06:58:18;;;;;;;11.90;3.60;;;15.50;99.90;;;;;;5057898;28;25076;-61
2022/05/27 07:00:43;;;;;;;10.23;3.05;;;15.70;99.90;;;;;;5058105;28;25061;-63
2022/05/27 07:03:09;;;;;;;10.43;3.78;;;15.80;99.90;;;;;;5057455;28;25102;-61
2022/05/27 07:05:36;;;;;;;11.35;4.50;;;16.00;99.90;;;;;;5057961;28;25059;-60
2022/05/27 07:08:04;;;;;;;12.20;3.88;;;15.80;99.90;;;;;;5057051;28;25077;-60
2022/05/27 07:10:30;;;;;;;11.10;4.03;;;15.40;99.90;;;;;;5057918;28;25072;-61
2022/05/27 07:12:59;;;;;;;9.90;3.38;;;15.30;99.90;;;;;;5056491;28;25142;-61
2022/05/27 07:15:31;;;;;;;16.10;3.33;;;15.10;99.90;;;;;;5056767;28;25092;-60
2022/05/27 07:17:58;;;;;;;11.18;3.05;;;15.30;99.90;;;;;;5059198;28;25091;-60
2022/05/27 07:20:24;;;;;;;11.18;3.42;;;15.60;99.90;;;;;;5057741;28;25057;-61
2022/05/27 07:22:49;;;;;;;13.00;3.13;;;15.70;99.90;;;;;;5056981;28;25070;-60
2022/05/27 07:25:15;;;;;;;13.85;2.65;;;15.70;99.90;;;;;;5058243;28;25054;-60
2022/05/27 07:27:41;;;;;;;10.40;2.80;;;15.70;99.90;;;;;;5058285;28;25093;-62
2022/05/27 07:30:09;;;;;;;9.35;2.55;;;15.70;99.90;;;;;;5058947;28;25110;-60
2022/05/27 07:32:36;;;;;;;14.98;3.50;;;15.90;99.90;;;;;;5056671;28;25073;-61
2022/05/27 07:35:04;;;;;;;11.20;3.05;;;16.10;99.90;;;;;;5055591;28;25060;-61
2022/05/27 07:37:30;;;;;;;17.17;4.32;;;16.10;99.90;;;;;;5057983;28;25055;-60
2022/05/27 07:39:55;;;;;;;12.25;3.22;;;16.30;99.90;;;;;;5058470;28;25095;-61
2022/05/27 07:42:21;;;;;;;11.45;2.90;;;16.40;99.90;;;;;;5057768;28;25054;-61
2022/05/27 07:44:47;;;;;;;16.42;3.30;;;16.20;99.90;;;;;;5057080;28;25058;-61
2022/05/27 07:47:12;;;;;;;10.40;2.75;;;16.20;99.90;;;;;;5056306;28;25128;-61
2022/05/27 07:49:38;;;;;;;12.32;3.50;;;16.10;99.90;;;;;;5058188;28;25159;-62
2022/05/27 07:52:05;;;;;;;15.35;3.60;;;16.30;99.90;;;;;;5056725;28;25138;-63
2022/05/27 07:54:31;;;;;;;10.98;2.83;;;16.10;99.90;;;;;;5056270;28;25097;-62
2022/05/27 07:56:57;;;;;;;14.90;3.20;;;16.00;99.90;;;;;;5057293;28;25086;-61
2022/05/27 07:59:22;;;;;;;12.77;3.53;;;15.90;99.90;;;;;;5056726;28;25063;-61
2022/05/27 08:01:48;;;;;;;11.98;3.50;;;15.90;99.90;;;;;;5056824;28;25144;-63
2022/05/27 08:04:14;;;;;;;14.93;3.58;;;15.80;99.90;;;;;;5056053;28;25060;-66
2022/05/27 08:06:40;;;;;;;15.70;3.15;;;15.90;99.90;;;;;;5057676;28;25055;-63
2022/05/27 08:09:05;;;;;;;10.77;4.00;;;16.00;99.90;;;;;;5058317;28;25057;-64
2022/05/27 08:11:31;;;;;;;11.88;3.25;;;15.90;99.90;;;;;;5057805;28;25102;-62
2022/05/27 08:13:58;;;;;;;13.32;3.72;;;15.80;99.90;;;;;;5057561;28;25080;-63
2022/05/27 08:16:24;;;;;;;13.18;3.28;;;16.10;99.90;;;;;;5061777;28;25076;-62
2022/05/27 08:18:50;;;;;;;10.50;3.03;;;16.10;99.90;;;;;;5057555;28;25099;-65
2022/05/27 08:21:16;;;;;;;9.52;3.60;;;15.90;99.90;;;;;;5058092;28;25056;-63
2022/05/27 08:23:42;;;;;;;12.88;3.33;;;15.90;99.90;;;;;;5056961;28;25055;-63
2022/05/27 08:26:07;;;;;;;14.43;3.03;;;15.70;99.90;;;;;;5058364;28;25145;-62
2022/05/27 08:28:33;;;;;;;14.20;4.35;;;15.80;99.90;;;;;;5057831;28;25031;-63
2022/05/27 08:30:59;;;;;;;14.77;3.15;;;16.00;99.90;;;;;;5059263;28;25064;-62
2022/05/27 08:38:00;;;;;;;14.85;3.63;;;16.20;99.60;;;;;;5058531;28;25090;-61
2022/05/27 08:38:56;;;;;;;13.38;3.33;;;16.10;95.00;;;;;;5067847;28;25087;-63
2022/05/27 08:41:45;;;;;;;15.20;3.55;;;16.10;96.50;;;;;;5060886;28;25089;-62
2022/05/27 08:44:23;;;;;;;18.33;3.78;;;16.30;94.70;;;;;;5057394;28;25165;-61
2022/05/27 08:46:51;;;;;;;11.27;2.92;;;16.30;94.10;;;;;;5055220;28;25066;-61
2022/05/27 08:49:28;;;;;;;16.17;3.80;;;16.50;94.40;;;;;;5056485;28;25082;-61
2022/05/27 08:52:13;;;;;;;12.95;2.67;;;15.90;93.60;;;;;;5055684;28;25049;-61
2022/05/27 08:54:54;;;;;;;8.60;2.88;;;16.00;94.10;;;;;;5055724;28;25065;-61
2022/05/27 09:00:10;;;;;;;18.60;4.00;;;16.70;92.10;;;;;;5055949;28;25065;-61
2022/05/27 09:02:57;;;;;;;16.75;3.95;;;16.80;91.60;;;;;;5056855;28;25081;-60
2022/05/27 09:05:40;;;;;;;11.57;3.30;;;16.70;91.70;;;;;;5054622;28;25132;-60
2022/05/27 09:08:05;;;;;;;14.40;3.15;;;16.40;93.20;;;;;;5056446;28;25144;-63
2022/05/27 09:10:38;;;;;;;15.18;3.38;;;16.80;92.20;;;;;;5056735;28;25074;-62
2022/05/27 09:13:20;;;;;;;18.20;4.13;;;17.20;90.80;;;;;;5055855;28;25107;-63
2022/05/27 09:16:09;;;;;;;16.85;3.53;;;17.60;90.30;;;;;;5056026;28;25076;-62
2022/05/27 09:18:39;;;;;;;14.23;3.10;;;17.50;88.30;;;;;;5056343;28;25108;-62
2022/05/27 09:21:28;;;;;;;18.58;3.03;;;17.10;91.00;;;;;;5056227;28;25120;-62
2022/05/27 09:23:58;;;;;;;15.88;3.85;;;16.80;91.40;;;;;;5057261;28;25081;-60
2022/05/27 09:26:31;;;;;;;16.58;4.38;;;16.90;90.70;;;;;;5054798;28;25158;-60
2022/05/27 09:29:06;;;;;;;11.80;3.42;;;16.70;89.90;;;;;;5054713;28;25068;-61
2022/05/27 09:31:35;;;;;;;14.75;3.25;;;16.90;91.40;;;;;;5056834;28;25062;-62
2022/05/27 09:34:01;;;;;;;12.35;2.92;;;17.40;91.40;;;;;;5056570;28;25067;-60
2022/05/27 09:36:37;;;;;;;19.95;3.55;;;17.30;89.60;;;;;;5057462;28;25094;-61
2022/05/27 09:39:06;;;;;;;11.20;3.08;;;16.80;88.60;;;;;;5054535;28;25066;-61
2022/05/27 09:41:38;;;;;;;17.17;4.13;;;16.80;88.10;;;;;;5055210;28;25159;-62
2022/05/27 09:44:09;;;;;;;;;;;16.80;87.30;;;;;;5055002;28;25072;-62
2022/05/27 09:46:35;;;;;;;12.23;3.60;;;16.90;89.20;;;;;;5054556;28;24072;-60
2022/05/27 09:49:01;;;;;;;16.00;3.55;;;16.90;86.30;;;;;;5055401;28;25113;-61
2022/05/27 09:51:30;;;;;;;12.15;3.15;;;16.60;86.00;;;;;;5055783;28;25114;-65
2022/05/27 09:54:21;;;;;;;16.88;3.88;;;16.50;88.60;;;;;;5055302;28;25154;-63
2022/05/27 09:56:58;;;;;;;11.70;3.22;;;16.70;88.30;;;;;;5055010;28;25056;-62
2022/05/27 09:59:47;;;;;;;11.10;3.10;;;17.00;85.60;;;;;;5061082;28;25123;-61
2022/05/27 10:02:21;;;;;;;10.90;2.72;;;17.10;84.80;;;;;;5056030;28;25098;-62
2022/05/27 10:04:53;;;;;;;14.77;3.75;;;17.00;90.00;;;;;;5054736;28;25088;-61
2022/05/27 10:07:26;;;;;;;;;;;17.50;85.90;;;;;;5056233;28;25076;-63
2022/05/27 10:09:52;;;;;;;11.57;3.17;;;17.70;82.20;;;;;;5055707;28;24063;-62
2022/05/27 10:12:33;;;;;;;9.20;3.13;;;18.00;71.40;;;;;;5054039;28;25114;-62
2022/05/27 10:14:59;;;;;;;12.30;3.33;;;18.40;65.80;;;;;;5054656;28;25148;-61
2022/05/27 10:17:36;;;;;;;11.00;3.63;;;18.20;66.30;;;;;;5055530;28;25064;-62
2022/05/27 10:20:29;;;;;;;9.02;2.55;;;18.50;66.10;;;;;;5053955;28;25070;-60
2022/05/27 10:23:05;;;;;;;14.77;3.58;;;18.20;68.20;;;;;;5052408;28;25075;-64
2022/05/27 10:25:35;;;;;;;15.95;2.70;;;18.00;68.90;;;;;;5055033;28;25144;-63
2022/05/27 10:28:02;;;;;;;11.82;3.50;;;18.20;66.30;;;;;;5055088;28;25115;-63
2022/05/27 10:30:31;;;;;;;15.05;3.90;;;18.40;62.70;;;;;;5053791;28;25150;-61
2022/05/27 10:33:36;;;;;;;16.05;3.45;;;18.60;63.50;;;;;;5053773;28;25055;-64
2022/05/27 10:36:02;;;;;;;12.05;3.10;;;18.80;58.80;;;;;;5052490;28;25151;-64
2022/05/27 10:38:44;;;;;;;13.80;3.78;;;19.10;60.70;;;;;;5059700;28;25041;-63
2022/05/27 10:41:31;;;;;;;10.95;3.13;;;18.60;60.70;;;;;;5055847;28;25062;-62
2022/05/27 10:44:25;;;;;;;12.98;3.35;;;18.50;68.50;;;;;;5054892;28;25083;-61
2022/05/27 10:46:56;;;;;;;14.40;4.18;;;17.80;67.90;;;;;;5055048;28;25069;-60
2022/05/27 10:49:40;;;;;;;15.07;3.55;;;17.20;82.90;;;;;;5055633;28;25096;-60
2022/05/27 10:52:56;;;;;;;14.82;3.28;;;16.60;85.50;;;;;;5054073;28;25070;-59
2022/05/27 10:55:39;;;;;;;18.75;4.20;;;16.60;90.00;;;;;;5055167;28;25070;-61
2022/05/27 11:04:17;;;;;;;16.60;4.68;;;17.40;91.10;;;;;;5059632;28;25055;-61
2022/05/27 11:06:49;;;;;;;18.35;4.55;;;17.20;88.60;;;;;;5057516;28;25080;-62
2022/05/27 11:09:20;;;;;;;16.25;4.07;;;18.00;87.70;;;;;;5055078;28;25125;-62
2022/05/27 11:12:09;;;;;;;16.90;3.67;;;18.30;86.50;;;;;;5055230;28;25080;-62
2022/05/27 11:15:12;;;;;;;15.23;3.90;;;17.60;86.90;;;;;;5045364;28;25160;-61
2022/05/27 11:17:55;;;;;;;13.40;4.03;;;17.20;90.20;;;;;;5054351;28;25063;-62
2022/05/27 11:20:42;;;;;;;23.35;4.43;;;17.80;90.60;;;;;;5055031;28;25060;-61
2022/05/27 11:23:46;;;;;;;16.55;4.70;;;18.30;89.20;;;;;;5052912;28;25115;-62
2022/05/27 11:26:29;;;;;;;18.08;4.20;;;17.70;87.60;;;;;;5053057;28;25097;-62
2022/05/27 11:29:02;;;;;;;21.27;4.63;;;17.70;89.00;;;;;;5055739;28;25069;-61
2022/05/27 11:31:57;;;;;;;17.25;3.65;;;17.20;85.70;;;;;;5060393;28;25103;-62
2022/05/27 11:34:45;;;;;;;23.20;4.15;;;16.80;90.60;;;;;;5063565;28;25082;-62
2022/05/27 11:37:34;;;;;;;13.48;4.22;;;17.90;85.80;;;;;;5060178;28;25073;-62
2022/05/27 11:40:30;;;;;;;13.77;4.40;;;18.30;79.60;;;;;;5058995;28;25133;-61
2022/05/27 11:43:13;;;;;;;12.77;3.30;;;18.20;72.90;;;;;;5058879;28;25074;-64
2022/05/27 11:45:51;;;;;;;14.15;3.67;;;17.60;72.40;;;;;;5058563;28;25115;-62
2022/05/27 11:48:55;;;;;;;15.18;3.67;;;17.70;64.00;;;;;;5058285;28;25157;-63
2022/05/27 11:52:12;;;;;;;12.10;3.10;;;17.70;66.10;;;;;;5058312;28;25097;-63
2022/05/27 11:54:49;;;;;;;10.75;2.92;;;17.60;61.10;;;;;;5043365;28;25083;-63
2022/05/27 11:57:35;;;;;;;10.63;2.75;;;17.90;54.30;;;;;;5058106;28;25061;-61
2022/05/27 12:00:10;;;;;;;18.15;3.25;;;17.40;50.20;;;;;;5057252;28;25106;-60
2022/05/27 12:03:07;;;;;;;9.57;2.45;;;17.40;53.30;;;;;;5056546;28;25094;-62
2022/05/27 12:05:50;;;;;;;9.13;2.30;;;18.00;47.20;;;;;;5057455;28;25123;-62
2022/05/27 12:08:48;;;;;;;9.88;2.50;;;18.20;47.50;;;;;;5061884;28;25063;-61
2022/05/27 12:11:19;;;;;;;8.55;2.38;;;18.40;45.30;;;;;;5060474;28;25071;-60
2022/05/27 12:14:05;;;;;;;9.47;2.57;;;18.00;50.70;;;;;;5056950;28;25081;-62
2022/05/27 12:16:38;;;;;;;11.90;2.65;;;18.50;53.40;;;;;;5057272;28;25098;-61
2022/05/27 12:19:10;;;;;;;14.85;3.55;;;17.80;53.40;;;;;;5057064;28;25064;-62
2022/05/27 12:21:43;;;;;;;18.58;4.47;;;17.40;64.40;;;;;;5056587;28;25090;-62
2022/05/27 12:24:31;;;;;;;15.13;3.85;;;18.00;61.60;;;;;;5055298;28;25077;-61
2022/05/27 12:26:58;;;;;;;12.18;3.17;;;16.90;63.10;;;;;;5056025;28;25101;-62
2022/05/27 12:29:26;;;;;;;15.27;3.15;;;17.10;62.60;;;;;;5056256;28;25058;-63
2022/05/27 12:31:53;;;;;;;16.13;2.83;;;17.80;64.40;;;;;;5056392;28;24991;-60
2022/05/27 12:34:28;;;;;;;8.35;2.83;;;17.50;55.10;;;;;;5054849;28;25145;-60
2022/05/27 12:37:12;;;;;;;17.10;3.10;;;16.60;61.30;;;;;;5055409;28;25093;-62
2022/05/27 12:39:39;;;;;;;10.85;3.08;;;16.80;64.40;;;;;;5057354;28;25052;-61
2022/05/27 12:42:12;;;;;;;7.88;2.17;;;17.10;60.10;;;;;;5058913;28;25077;-61
2022/05/27 12:44:39;;;;;;;8.43;2.60;;;17.20;62.00;;;;;;5060542;28;25067;-61
2022/05/27 12:47:26;;;;;;;12.52;4.10;;;17.40;56.70;;;;;;5057325;28;25077;-62
2022/05/27 12:50:01;;;;;;;10.70;3.05;;;17.20;60.10;;;;;;5057999;28;25093;-61
2022/05/27 12:52:29;;;;;;;10.52;2.90;;;17.20;59.00;;;;;;5056471;28;25061;-62
2022/05/27 12:54:56;;;;;;;11.98;3.42;;;17.30;63.20;;;;;;5056979;28;25128;-63
2022/05/27 13:03:40;;;;;;;14.73;3.88;;;16.90;67.30;;;;;;5055781;28;25065;-62
2022/05/27 13:06:07;;;;;;;13.52;2.80;;;16.70;70.70;;;;;;5055935;28;25101;-61
2022/05/27 13:08:48;;;;;;;20.08;3.70;;;17.20;71.90;;;;;;5057241;28;25050;-62
2022/05/27 13:11:15;;;;;;;15.18;3.28;;;17.40;67.40;;;;;;5056688;28;25133;-61
2022/05/27 13:13:41;;;;;;;16.05;2.95;;;17.20;70.60;;;;;;5054059;28;25120;-63
2022/05/27 13:16:23;;;;;;;9.02;2.67;;;16.90;70.70;;;;;;5055947;28;25525;-60
2022/05/27 13:18:57;;;;;;;9.98;2.20;;;16.60;64.10;;;;;;5054006;28;25108;-61
2022/05/27 13:21:28;;;;;;;11.82;3.35;;;16.60;68.70;;;;;;5056167;28;25095;-60
2022/05/27 13:24:03;;;;;;;13.15;2.83;;;16.90;69.60;;;;;;5052764;28;25108;-63
2022/05/27 13:26:35;;;;;;;16.75;3.83;;;17.10;69.90;;;;;;5054694;28;25052;-63
2022/05/27 13:29:01;;;;;;;11.35;3.60;;;17.70;67.30;;;;;;5056335;28;25063;-60
2022/05/27 13:31:43;;;;;;;10.15;3.67;;;17.20;70.90;;;;;;5057113;28;25067;-63
2022/05/27 13:34:17;;;;;;;16.13;3.97;;;16.60;73.70;;;;;;5056475;28;25070;-63